createdAt,value
2018-03-26T00:02:22.687Z,55.40
2018-03-26T00:04:50.235Z,55.52
2018-03-26T00:07:17.736Z,55.44
2018-03-26T00:09:45.641Z,55.58
2018-03-26T00:12:13.188Z,55.86
2018-03-26T00:14:40.691Z,55.62
2018-03-26T00:17:08.214Z,55.58
2018-03-26T00:19:35.763Z,55.50
2018-03-26T00:22:03.578Z,55.60
2018-03-26T00:24:31.107Z,55.73
2018-03-26T00:26:58.648Z,55.91
2018-03-26T00:29:26.189Z,55.70
2018-03-26T00:31:53.701Z,55.81
2018-03-26T00:34:21.262Z,56.07
2018-03-26T00:36:48.776Z,56.30
2018-03-26T00:39:16.612Z,56.47
2018-03-26T00:41:44.156Z,56.42
2018-03-26T00:44:11.742Z,56.18
2018-03-26T00:46:39.232Z,56.15
2018-03-26T00:49:06.773Z,56.33
2018-03-26T00:51:34.602Z,56.09
2018-03-26T00:54:02.370Z,56.08
2018-03-26T00:56:29.925Z,55.95
2018-03-26T00:58:57.434Z,56.16
2018-03-26T01:01:24.940Z,56.25
2018-03-26T01:03:52.635Z,56.26
2018-03-26T01:06:20.169Z,56.26
2018-03-26T01:08:47.703Z,56.19
2018-03-26T01:11:15.242Z,56.10
2018-03-26T01:13:43.053Z,56.11
2018-03-26T01:16:10.830Z,56.24
2018-03-26T01:18:38.356Z,56.25
2018-03-26T01:21:05.869Z,56.05
2018-03-26T01:23:33.376Z,55.91
2018-03-26T01:26:01.137Z,55.82
2018-03-26T01:28:28.646Z,55.91
2018-03-26T01:30:56.154Z,55.88
2018-03-26T01:33:23.825Z,55.68
2018-03-26T01:35:51.460Z,55.71
2018-03-26T01:38:19.402Z,55.71
2018-03-26T01:40:47.363Z,55.69
2018-03-26T01:43:14.996Z,55.71
2018-03-26T01:45:42.585Z,55.73
2018-03-26T01:48:10.175Z,55.65
2018-03-26T01:50:38.464Z,55.79
2018-03-26T01:53:06.033Z,55.72
2018-03-26T01:55:33.645Z,55.62
2018-03-26T01:58:01.425Z,55.60
2018-03-26T02:00:29.379Z,55.73
2018-03-26T02:02:56.966Z,55.58
2018-03-26T02:05:24.526Z,55.63
2018-03-26T02:07:52.367Z,55.77
2018-03-26T02:10:19.954Z,55.86
2018-03-26T02:12:47.507Z,55.85
2018-03-26T02:15:15.046Z,55.88
2018-03-26T02:17:42.866Z,56.15
2018-03-26T02:20:10.421Z,56.06
2018-03-26T02:22:37.977Z,56.04
2018-03-26T02:25:05.572Z,56.41
2018-03-26T02:27:33.149Z,56.01
2018-03-26T02:30:00.752Z,56.18
2018-03-26T02:32:28.340Z,56.28
2018-03-26T02:34:55.913Z,56.32
2018-03-26T02:37:23.540Z,56.34
2018-03-26T02:39:51.476Z,56.50
2018-03-26T02:42:19.111Z,56.71
2018-03-26T02:44:46.700Z,56.74
2018-03-26T02:47:14.570Z,56.62
2018-03-26T02:49:42.450Z,56.77
2018-03-26T02:52:10.827Z,56.81
2018-03-26T02:54:38.430Z,56.83
2018-03-26T02:57:06.019Z,56.78
2018-03-26T02:59:33.573Z,56.71
2018-03-26T03:02:01.173Z,56.83
2018-03-26T03:04:28.723Z,57.12
2018-03-26T03:06:56.299Z,57.20
2018-03-26T03:09:23.897Z,57.14
2018-03-26T03:11:51.720Z,57.18
2018-03-26T03:14:19.290Z,57.17
2018-03-26T03:16:46.883Z,57.30
2018-03-26T03:19:14.502Z,57.44
2018-03-26T03:21:42.044Z,57.37
2018-03-26T03:24:09.689Z,57.55
2018-03-26T03:26:37.259Z,57.31
2018-03-26T03:29:04.819Z,57.79
2018-03-26T03:31:32.429Z,57.60
2018-03-26T03:33:59.984Z,57.72
2018-03-26T03:36:27.542Z,57.58
2018-03-26T03:38:55.125Z,57.71
2018-03-26T03:41:22.687Z,57.77
2018-03-26T03:43:50.507Z,57.73
2018-03-26T03:46:18.120Z,57.66
2018-03-26T03:48:45.728Z,57.66
2018-03-26T03:51:13.277Z,57.51
2018-03-26T03:53:41.164Z,57.75
2018-03-26T03:56:08.731Z,57.74
2018-03-26T03:58:36.400Z,57.49
2018-03-26T04:01:04.274Z,57.71
2018-03-26T04:03:32.083Z,57.61
2018-03-26T04:05:59.671Z,57.73
2018-03-26T04:08:27.486Z,57.87
2018-03-26T04:10:55.318Z,57.99
2018-03-26T04:13:22.881Z,58.01
2018-03-26T04:15:50.563Z,58.03
2018-03-26T04:18:18.135Z,58.14
2018-03-26T04:20:46.333Z,58.37
2018-03-26T04:23:13.919Z,58.38
2018-03-26T04:25:41.508Z,58.49
2018-03-26T04:28:09.108Z,58.58
2018-03-26T04:30:36.720Z,58.64
2018-03-26T04:33:04.326Z,58.65
2018-03-26T04:35:31.938Z,59.02
2018-03-26T04:37:59.519Z,59.11
2018-03-26T04:40:27.247Z,59.34
2018-03-26T04:42:54.890Z,59.19
2018-03-26T04:45:22.518Z,59.28
2018-03-26T04:47:50.287Z,59.25
2018-03-26T04:50:18.129Z,59.37
2018-03-26T04:52:45.733Z,59.40
2018-03-26T04:55:13.361Z,59.58
2018-03-26T04:57:40.936Z,59.62
2018-03-26T05:00:08.808Z,59.73
2018-03-26T05:02:36.421Z,59.53
2018-03-26T05:05:04.028Z,59.58
2018-03-26T05:07:31.612Z,59.85
2018-03-26T05:09:59.171Z,59.88
2018-03-26T05:12:26.750Z,60.06
2018-03-26T05:14:54.298Z,59.91
2018-03-26T05:17:21.853Z,60.17
2018-03-26T05:19:49.464Z,60.17
2018-03-26T05:22:17.087Z,60.38
2018-03-26T05:24:45.456Z,60.82
2018-03-26T05:27:13.101Z,60.51
2018-03-26T05:29:40.708Z,60.55
2018-03-26T05:32:08.617Z,60.52
2018-03-26T05:34:36.393Z,60.02
2018-03-26T05:37:04.677Z,60.38
2018-03-26T05:39:32.240Z,60.37
2018-03-26T05:41:59.796Z,60.12
2018-03-26T05:44:27.395Z,60.31
2018-03-26T05:46:55.589Z,60.59
2018-03-26T05:49:23.165Z,60.29
2018-03-26T05:51:50.727Z,60.35
2018-03-26T05:54:19.534Z,60.25
2018-03-26T05:56:47.392Z,60.25
2018-03-26T05:59:14.972Z,60.19
2018-03-26T06:01:42.580Z,60.41
2018-03-26T06:04:10.211Z,60.29
2018-03-26T06:06:37.820Z,60.33
2018-03-26T06:09:06.542Z,60.23
2018-03-26T06:11:34.160Z,60.24
2018-03-26T06:14:01.845Z,60.29
2018-03-26T06:16:29.392Z,60.43
2018-03-26T06:18:57.930Z,60.34
2018-03-26T06:21:26.082Z,60.22
2018-03-26T06:23:53.655Z,60.37
2018-03-26T06:26:21.400Z,60.45
2018-03-26T06:28:48.960Z,60.43
2018-03-26T06:31:16.570Z,60.63
2018-03-26T06:33:44.158Z,60.57
2018-03-26T06:36:17.577Z,60.43
2018-03-26T06:39:04.453Z,60.57
2018-03-26T06:41:32.030Z,60.54
2018-03-26T06:43:59.622Z,60.87
2018-03-26T06:46:27.586Z,60.72
2018-03-26T06:48:55.995Z,60.50
2018-03-26T06:51:23.657Z,60.36
2018-03-26T06:53:51.505Z,60.23
2018-03-26T06:56:19.103Z,60.01
2018-03-26T06:58:46.716Z,59.82
2018-03-26T07:01:16.573Z,59.90
2018-03-26T07:03:47.176Z,59.42
2018-03-26T07:06:14.909Z,59.17
2018-03-26T07:08:44.161Z,59.16
2018-03-26T07:11:11.731Z,59.07
2018-03-26T07:13:39.328Z,58.64
2018-03-26T07:16:06.929Z,58.78
2018-03-26T07:18:34.812Z,58.84
2018-03-26T07:21:02.414Z,58.57
2018-03-26T07:23:29.976Z,58.27
2018-03-26T07:25:57.762Z,57.95
2018-03-26T07:28:25.464Z,58.11
2018-03-26T07:30:53.078Z,57.95
2018-03-26T07:33:20.784Z,57.57
2018-03-26T07:35:51.545Z,57.61
2018-03-26T07:38:19.197Z,57.26
2018-03-26T07:40:46.747Z,57.34
2018-03-26T07:43:14.312Z,57.22
2018-03-26T07:45:42.168Z,56.97
2018-03-26T07:48:09.767Z,56.81
2018-03-26T07:50:37.586Z,56.93
2018-03-26T07:53:05.219Z,56.95
2018-03-26T07:55:32.835Z,57.26
2018-03-26T07:58:00.443Z,57.23
2018-03-26T08:00:28.106Z,57.46
2018-03-26T08:02:55.970Z,57.29
2018-03-26T08:05:23.650Z,57.23
2018-03-26T08:07:51.291Z,57.32
2018-03-26T08:10:18.856Z,57.16
2018-03-26T08:12:46.515Z,56.98
2018-03-26T08:15:14.113Z,56.95
2018-03-26T08:17:41.676Z,56.93
2018-03-26T08:20:09.946Z,57.08
2018-03-26T08:22:37.529Z,57.34
2018-03-26T08:25:05.154Z,57.23
2018-03-26T08:27:33.347Z,57.84
2018-03-26T08:30:00.929Z,58.01
2018-03-26T08:32:28.561Z,58.04
2018-03-26T08:34:56.238Z,58.21
2018-03-26T08:37:23.909Z,58.15
2018-03-26T08:39:53.593Z,58.74
2018-03-26T08:42:21.248Z,58.29
2018-03-26T08:44:50.118Z,58.06
2018-03-26T08:47:20.477Z,58.02
2018-03-26T08:49:48.303Z,58.37
2018-03-26T08:52:20.910Z,58.16
2018-03-26T08:54:48.919Z,58.35
2018-03-26T08:57:16.550Z,58.15
2018-03-26T08:59:48.847Z,58.13
2018-03-26T09:02:16.456Z,57.83
2018-03-26T09:04:44.400Z,58.05
2018-03-26T09:07:15.536Z,58.40
2018-03-26T09:09:43.767Z,58.76
2018-03-26T09:12:13.872Z,58.76
2018-03-26T09:14:43.820Z,58.85
2018-03-26T09:17:13.644Z,58.75
2018-03-26T09:19:42.900Z,59.04
2018-03-26T09:22:11.159Z,58.93
2018-03-26T09:24:42.922Z,59.01
2018-03-26T09:27:15.300Z,58.98
2018-03-26T09:29:43.776Z,58.88
2018-03-26T09:32:16.519Z,59.14
2018-03-26T09:34:47.813Z,59.27
2018-03-26T09:37:23.269Z,59.22
2018-03-26T09:39:54.497Z,59.56
2018-03-26T09:42:22.206Z,59.83
2018-03-26T09:44:57.060Z,59.53
2018-03-26T09:47:29.679Z,59.54
2018-03-26T09:49:58.124Z,59.57
2018-03-26T09:52:25.984Z,59.31
2018-03-26T09:54:53.756Z,59.50
2018-03-26T09:57:21.418Z,59.75
2018-03-26T09:59:50.911Z,59.95
2018-03-26T10:02:18.539Z,59.93
2018-03-26T10:04:46.907Z,59.79
2018-03-26T10:09:48.667Z,60.14
2018-03-26T10:12:16.367Z,60.03
2018-03-26T10:14:43.953Z,60.89
2018-03-26T10:17:11.655Z,61.46
2018-03-26T10:19:39.818Z,61.81
2018-03-26T10:22:07.410Z,62.67
2018-03-26T10:24:35.003Z,63.05
2018-03-26T10:27:04.012Z,63.35
2018-03-26T10:29:31.604Z,63.68
2018-03-26T10:31:59.266Z,64.06
2018-03-26T10:34:26.887Z,64.74
2018-03-26T10:36:54.433Z,64.88
2018-03-26T10:39:22.047Z,65.13
2018-03-26T10:41:49.645Z,65.70
2018-03-26T10:44:17.239Z,65.98
2018-03-26T10:46:46.153Z,66.15
2018-03-26T10:49:14.642Z,66.13
2018-03-26T10:51:42.301Z,66.56
2018-03-26T10:54:09.929Z,67.15
2018-03-26T10:56:40.671Z,67.64
2018-03-26T10:59:09.123Z,67.96
2018-03-26T11:01:41.192Z,68.30
2018-03-26T11:04:16.863Z,68.57
2018-03-26T11:06:44.429Z,68.54
2018-03-26T11:09:12.129Z,69.47
2018-03-26T11:11:40.628Z,70.68
2018-03-26T11:14:08.700Z,70.70
2018-03-26T11:16:38.573Z,69.99
2018-03-26T11:19:06.471Z,70.09
2018-03-26T11:21:34.719Z,70.20
2018-03-26T11:24:06.004Z,70.29
2018-03-26T11:26:34.558Z,68.95
2018-03-26T11:29:04.957Z,68.88
2018-03-26T11:31:33.679Z,69.02
2018-03-26T11:34:02.565Z,68.66
2018-03-26T11:36:30.979Z,68.47
2018-03-26T11:38:58.537Z,68.06
2018-03-26T11:41:26.265Z,68.38
2018-03-26T11:43:54.501Z,68.58
2018-03-26T11:46:24.380Z,69.29
2018-03-26T11:48:57.259Z,70.03
2018-03-26T11:51:26.891Z,70.15
2018-03-26T11:53:57.473Z,70.18
2018-03-26T11:56:27.338Z,70.41
2018-03-26T11:58:57.365Z,70.95
2018-03-26T12:01:28.617Z,70.87
2018-03-26T12:04:00.379Z,71.37
2018-03-26T12:06:28.384Z,71.74
2018-03-26T12:08:55.998Z,71.74
2018-03-26T12:11:23.605Z,71.83
2018-03-26T12:13:51.185Z,71.82
2018-03-26T12:16:18.867Z,72.12
2018-03-26T12:18:46.532Z,72.25
2018-03-26T12:21:14.151Z,72.68
2018-03-26T12:23:53.456Z,72.93
2018-03-26T12:26:21.476Z,72.95
2018-03-26T12:29:02.452Z,72.66
2018-03-26T12:31:30.033Z,72.10
2018-03-26T12:34:09.765Z,72.00
2018-03-26T12:36:37.366Z,71.62
2018-03-26T12:39:04.929Z,71.67
2018-03-26T12:41:32.593Z,71.47
2018-03-26T12:44:00.187Z,71.39
2018-03-26T12:46:36.791Z,71.14
2018-03-26T12:49:04.375Z,71.20
2018-03-26T12:51:44.102Z,70.77
2018-03-26T12:54:11.731Z,70.64
2018-03-26T12:56:39.514Z,70.42
2018-03-26T12:59:07.202Z,69.88
2018-03-26T13:01:46.888Z,69.39
2018-03-26T13:04:17.269Z,68.19
2018-03-26T13:06:45.760Z,67.06
2018-03-26T13:09:13.406Z,66.59
2018-03-26T13:11:41.031Z,64.86
2018-03-26T13:14:08.900Z,63.77
2018-03-26T13:16:36.444Z,62.54
2018-03-26T13:19:04.034Z,61.89
2018-03-26T13:21:32.231Z,60.41
2018-03-26T13:24:07.532Z,59.69
2018-03-26T13:26:35.220Z,59.64
2018-03-26T13:29:02.963Z,59.79
2018-03-26T13:31:30.550Z,59.59
2018-03-26T13:33:58.202Z,59.98
2018-03-26T13:36:25.811Z,60.57
2018-03-26T13:38:54.004Z,60.57
2018-03-26T13:41:22.203Z,60.86
2018-03-26T13:43:50.563Z,61.08
2018-03-26T13:46:18.480Z,60.84
2018-03-26T13:48:46.061Z,60.68
2018-03-26T13:51:13.659Z,59.93
2018-03-26T13:53:41.266Z,59.37
2018-03-26T13:56:08.899Z,59.61
2018-03-26T13:58:36.520Z,59.66
2018-03-26T14:01:08.601Z,59.71
2018-03-26T14:06:15.433Z,58.28
2018-03-26T14:08:54.793Z,56.17
2018-03-26T14:11:34.156Z,53.04
2018-03-26T14:17:15.960Z,43.33
2018-03-26T14:19:43.775Z,39.93
2018-03-26T14:22:16.324Z,37.12
2018-03-26T14:24:43.994Z,34.32
2018-03-26T14:27:11.728Z,33.79
2018-03-26T14:29:39.319Z,32.56
2018-03-26T14:32:07.098Z,32.06
2018-03-26T14:34:34.739Z,30.29
2018-03-26T14:37:02.779Z,31.69
2018-03-26T14:39:30.391Z,32.53
2018-03-26T14:41:58.127Z,32.08
2018-03-26T14:44:26.692Z,32.99
2018-03-26T14:47:15.303Z,33.44
2018-03-26T14:49:42.909Z,32.74
2018-03-26T14:52:11.492Z,32.67
2018-03-26T14:54:43.967Z,32.97
2018-03-26T14:57:12.914Z,32.40
2018-03-26T14:59:43.875Z,31.31
2018-03-26T15:02:13.851Z,31.26
2018-03-26T15:04:42.994Z,31.29
2018-03-26T15:07:11.585Z,30.92
2018-03-26T15:09:39.487Z,30.11
2018-03-26T15:12:07.076Z,29.31
2018-03-26T15:14:34.866Z,29.12
2018-03-26T15:17:02.437Z,29.31
2018-03-26T15:19:30.041Z,30.48
2018-03-26T15:21:57.833Z,31.85
2018-03-26T15:24:27.339Z,31.79
2018-03-26T15:26:55.519Z,32.82
2018-03-26T15:29:23.183Z,34.63
2018-03-26T15:31:50.798Z,35.37
2018-03-26T15:34:23.790Z,36.85
2018-03-26T15:36:52.244Z,38.35
2018-03-26T15:39:19.847Z,38.75
2018-03-26T15:41:47.624Z,39.61
2018-03-26T15:44:15.270Z,40.90
2018-03-26T15:46:42.876Z,41.08
2018-03-26T15:49:10.494Z,41.84
2018-03-26T15:51:38.905Z,43.60
2018-03-26T15:54:06.603Z,44.24
2018-03-26T15:56:34.158Z,45.55
2018-03-26T15:59:01.742Z,46.44
2018-03-26T16:01:29.331Z,46.53
2018-03-26T16:03:56.973Z,47.12
2018-03-26T16:06:37.898Z,47.66
2018-03-26T16:09:06.139Z,48.41
2018-03-26T16:11:34.089Z,48.46
2018-03-26T16:14:01.718Z,49.15
2018-03-26T16:16:29.358Z,49.39
2018-03-26T16:18:56.959Z,49.91
2018-03-26T16:21:24.633Z,50.57
2018-03-26T16:23:52.205Z,51.01
2018-03-26T16:26:20.065Z,51.08
2018-03-26T16:28:47.689Z,51.16
2018-03-26T16:31:15.279Z,51.07
2018-03-26T16:33:42.863Z,52.27
2018-03-26T16:36:10.477Z,53.11
2018-03-26T16:38:39.055Z,53.81
2018-03-26T16:41:07.335Z,54.67
2018-03-26T16:43:36.148Z,55.02
2018-03-26T16:46:03.748Z,55.37
2018-03-26T16:48:31.449Z,55.61
2018-03-26T16:50:59.648Z,55.85
2018-03-26T16:53:27.424Z,56.24
2018-03-26T16:55:55.015Z,56.97
2018-03-26T16:58:22.943Z,57.48
2018-03-26T17:00:52.248Z,57.82
2018-03-26T17:03:20.043Z,58.20
2018-03-26T17:05:48.807Z,58.70
2018-03-26T17:08:16.557Z,58.94
2018-03-26T17:10:45.881Z,59.17
2018-03-26T17:13:13.459Z,59.64
2018-03-26T17:15:43.026Z,60.04
2018-03-26T17:18:10.594Z,60.15
2018-03-26T17:20:38.244Z,60.23
2018-03-26T17:23:06.156Z,60.50
2018-03-26T17:25:33.739Z,60.43
2018-03-26T17:28:02.995Z,60.64
2018-03-26T17:30:30.606Z,60.99
2018-03-26T17:32:58.654Z,60.98
2018-03-26T17:35:26.893Z,61.45
2018-03-26T17:37:54.473Z,61.46
2018-03-26T17:40:22.354Z,61.61
2018-03-26T17:42:49.942Z,61.79
2018-03-26T17:45:17.508Z,61.51
2018-03-26T17:47:45.094Z,61.89
2018-03-26T17:50:12.717Z,61.71
2018-03-26T17:52:40.589Z,61.44
2018-03-26T17:55:08.189Z,61.64
2018-03-26T17:57:35.775Z,61.98
2018-03-26T18:00:03.425Z,62.07
2018-03-26T18:02:31.067Z,62.24
2018-03-26T18:04:58.744Z,62.01
2018-03-26T18:07:27.310Z,62.00
2018-03-26T18:09:54.869Z,62.18
2018-03-26T18:12:22.570Z,62.29
2018-03-26T18:14:50.200Z,62.45
2018-03-26T18:17:17.827Z,62.76
2018-03-26T18:19:45.581Z,63.20
2018-03-26T18:22:13.239Z,63.22
2018-03-26T18:24:40.828Z,63.02
2018-03-26T18:27:08.474Z,63.06
2018-03-26T18:29:36.070Z,62.93
2018-03-26T18:32:03.885Z,63.04
2018-03-26T18:34:31.870Z,63.25
2018-03-26T18:36:59.509Z,63.49
2018-03-26T18:39:27.145Z,63.47
2018-03-26T18:41:55.343Z,63.45
2018-03-26T18:44:23.288Z,63.40
2018-03-26T18:46:51.142Z,63.69
2018-03-26T18:49:18.780Z,63.96
2018-03-26T18:51:46.391Z,63.68
2018-03-26T18:54:15.205Z,63.69
2018-03-26T18:56:42.790Z,63.97
2018-03-26T18:59:10.467Z,63.97
2018-03-26T19:01:38.305Z,64.12
2018-03-26T19:04:05.921Z,64.46
2018-03-26T19:06:34.487Z,64.46
2018-03-26T19:09:02.078Z,64.85
2018-03-26T19:11:30.376Z,64.64
2018-03-26T19:13:57.979Z,64.75
2018-03-26T19:16:26.364Z,65.04
2018-03-26T19:18:54.120Z,64.79
2018-03-26T19:21:22.138Z,64.65
2018-03-26T19:23:50.358Z,65.18
2018-03-26T19:26:17.987Z,65.56
2018-03-26T19:28:45.605Z,65.85
2018-03-26T19:31:13.261Z,65.57
2018-03-26T19:33:41.018Z,65.91
2018-03-26T19:36:08.715Z,65.73
2018-03-26T19:38:36.353Z,65.70
2018-03-26T19:41:04.894Z,65.69
2018-03-26T19:43:32.572Z,65.97
2018-03-26T19:46:00.154Z,65.82
2018-03-26T19:48:27.717Z,65.84
2018-03-26T19:50:55.303Z,65.58
2018-03-26T19:53:23.009Z,65.75
2018-03-26T19:55:50.898Z,66.10
2018-03-26T19:58:18.514Z,66.28
2018-03-26T20:00:46.164Z,66.32
2018-03-26T20:03:14.033Z,66.41
2018-03-26T20:05:41.684Z,66.36
2018-03-26T20:08:09.300Z,66.46
2018-03-26T20:10:37.832Z,66.70
2018-03-26T20:13:05.559Z,66.70
2018-03-26T20:15:33.156Z,66.74
2018-03-26T20:18:00.826Z,66.53
2018-03-26T20:20:28.442Z,66.82
2018-03-26T20:22:56.104Z,66.76
2018-03-26T20:25:23.666Z,66.64
2018-03-26T20:27:52.048Z,66.60
2018-03-26T20:30:21.323Z,66.35
2018-03-26T20:32:49.028Z,66.27
2018-03-26T20:35:16.691Z,66.30
2018-03-26T20:37:44.414Z,65.93
2018-03-26T20:40:12.719Z,65.85
2018-03-26T20:42:40.363Z,65.90
2018-03-26T20:45:07.974Z,65.99
2018-03-26T20:47:35.601Z,66.19
2018-03-26T20:50:04.122Z,65.92
2018-03-26T20:52:32.471Z,66.01
2018-03-26T20:55:00.072Z,66.07
2018-03-26T20:57:27.733Z,66.32
2018-03-26T20:59:57.037Z,66.70
2018-03-26T21:02:24.861Z,66.83
2018-03-26T21:04:52.458Z,66.42
2018-03-26T21:07:20.115Z,66.25
2018-03-26T21:09:47.732Z,66.42
2018-03-26T21:12:15.440Z,66.50
2018-03-26T21:14:43.005Z,66.46
2018-03-26T21:17:11.049Z,66.48
2018-03-26T21:19:39.050Z,66.56
2018-03-26T21:22:06.671Z,66.66
2018-03-26T21:24:34.243Z,66.58
2018-03-26T21:27:01.813Z,66.75
2018-03-26T21:29:29.554Z,66.57
2018-03-26T21:31:57.143Z,66.60
2018-03-26T21:34:24.804Z,66.61
2018-03-26T21:36:52.432Z,66.39
2018-03-26T21:39:20.017Z,66.74
2018-03-26T21:41:47.610Z,66.86
2018-03-26T21:44:15.227Z,66.82
2018-03-26T21:46:42.839Z,66.74
2018-03-26T21:49:10.430Z,66.45
2018-03-26T21:51:37.991Z,66.50
2018-03-26T21:54:06.100Z,66.59
2018-03-26T21:56:33.958Z,66.75
2018-03-26T21:59:02.154Z,66.66
2018-03-26T22:01:29.762Z,66.40
2018-03-26T22:03:57.361Z,66.21
2018-03-26T22:06:24.965Z,66.46
2018-03-26T22:08:54.331Z,66.52
2018-03-26T22:11:22.559Z,66.12
2018-03-26T22:13:50.364Z,65.94
2018-03-26T22:16:18.019Z,66.23
2018-03-26T22:18:45.999Z,66.17
2018-03-26T22:21:13.593Z,66.23
2018-03-26T22:23:41.179Z,66.20
2018-03-26T22:26:08.813Z,66.40
2018-03-26T22:28:36.408Z,66.42
2018-03-26T22:31:04.312Z,66.74
2018-03-26T22:33:32.181Z,67.09
2018-03-26T22:35:59.766Z,67.08
2018-03-26T22:38:28.056Z,67.04
2018-03-26T22:40:58.530Z,67.00
2018-03-26T22:43:26.441Z,66.75
2018-03-26T22:45:54.950Z,66.38
2018-03-26T22:48:22.552Z,66.54
2018-03-26T22:50:50.169Z,66.30
2018-03-26T22:53:17.735Z,66.35
2018-03-26T22:55:45.393Z,66.36
2018-03-26T22:58:12.989Z,66.32
2018-03-26T23:00:40.594Z,66.44
2018-03-26T23:03:08.180Z,66.67
2018-03-26T23:05:35.837Z,66.59
2018-03-26T23:08:03.680Z,66.65
2018-03-26T23:10:31.275Z,66.51
2018-03-26T23:12:59.191Z,65.72
2018-03-26T23:15:26.770Z,65.43
2018-03-26T23:17:54.335Z,65.62
2018-03-26T23:20:22.370Z,65.31
2018-03-26T23:22:49.969Z,65.22
2018-03-26T23:25:17.548Z,65.58
2018-03-26T23:27:45.157Z,65.93
2018-03-26T23:30:13.312Z,66.00
2018-03-26T23:32:40.913Z,66.17
2018-03-26T23:35:08.516Z,66.18
2018-03-26T23:37:36.101Z,65.95
2018-03-26T23:40:03.999Z,65.91
2018-03-26T23:42:31.667Z,66.16
2018-03-26T23:44:59.269Z,65.96
2018-03-26T23:47:26.887Z,65.59
2018-03-26T23:49:54.530Z,65.62
2018-03-26T23:52:22.478Z,65.24
2018-03-26T23:54:50.074Z,65.51
2018-03-26T23:57:17.682Z,65.39
2018-03-26T23:59:45.245Z,65.39
